sensor_id;sensor_type;location;lat;lon;timestamp;temperature;humidity
23305;DHT22;11821;51.456;8.844;2023-09-19T02:06:16;20.60;99.90
23305;DHT22;11821;51.456;8.844;2023-09-19T02:08:45;17.80;99.90
23305;DHT22;11821;51.456;8.844;2023-09-19T02:11:12;17.70;99.90
23305;DHT22;11821;51.456;8.844;2023-09-19T02:13:40;17.60;99.90
23305;DHT22;11821;51.456;8.844;2023-09-19T02:16:07;17.60;99.90
23305;DHT22;11821;51.456;8.844;2023-09-19T02:18:35;17.50;99.90
23305;DHT22;11821;51.456;8.844;2023-09-19T02:21:03;17.50;99.90
23305;DHT22;11821;51.456;8.844;2023-09-19T02:23:38;17.40;99.90
23305;DHT22;11821;51.456;8.844;2023-09-19T02:26:05;17.40;99.90
23305;DHT22;11821;51.456;8.844;2023-09-19T02:28:31;17.40;99.90
23305;DHT22;11821;51.456;8.844;2023-09-19T02:30:58;17.40;99.90
23305;DHT22;11821;51.456;8.844;2023-09-19T02:33:25;17.40;99.90
23305;DHT22;11821;51.456;8.844;2023-09-19T02:35:56;17.40;99.90
23305;DHT22;11821;51.456;8.844;2023-09-19T02:38:28;17.40;99.90
23305;DHT22;11821;51.456;8.844;2023-09-19T02:40:55;17.30;99.90
23305;DHT22;11821;51.456;8.844;2023-09-19T02:43:22;17.40;99.90
23305;DHT22;11821;51.456;8.844;2023-09-19T03:00:41;17.30;99.90
23305;DHT22;11821;51.456;8.844;2023-09-19T03:03:14;17.20;99.90
23305;DHT22;11821;51.456;8.844;2023-09-19T03:05:42;17.20;99.90
23305;DHT22;11821;51.456;8.844;2023-09-19T03:08:14;17.20;99.90
23305;DHT22;11821;51.456;8.844;2023-09-19T03:10:46;17.20;99.90
23305;DHT22;11821;51.456;8.844;2023-09-19T03:13:14;17.10;99.90
23305;DHT22;11821;51.456;8.844;2023-09-19T03:15:42;17.10;99.90
23305;DHT22;11821;51.456;8.844;2023-09-19T03:18:11;17.10;99.90
23305;DHT22;11821;51.456;8.844;2023-09-19T04:10:00;17.20;99.90
23305;DHT22;11821;51.456;8.844;2023-09-19T04:12:27;17.20;99.90
23305;DHT22;11821;51.456;8.844;2023-09-19T04:14:54;17.20;99.90
23305;DHT22;11821;51.456;8.844;2023-09-19T04:56:28;17.20;99.90
23305;DHT22;11821;51.456;8.844;2023-09-19T05:21:12;17.10;99.90
23305;DHT22;11821;51.456;8.844;2023-09-19T05:35:57;16.90;99.90
23305;DHT22;11821;51.456;8.844;2023-09-19T05:40:53;16.70;99.90
23305;DHT22;11821;51.456;8.844;2023-09-19T05:43:20;16.60;99.90
23305;DHT22;11821;51.456;8.844;2023-09-19T05:45:46;16.50;99.90
23305;DHT22;11821;51.456;8.844;2023-09-19T05:53:09;16.50;99.90
23305;DHT22;11821;51.456;8.844;2023-09-19T05:55:38;16.60;99.90
23305;DHT22;11821;51.456;8.844;2023-09-19T05:58:04;16.60;99.90
23305;DHT22;11821;51.456;8.844;2023-09-19T06:00:31;16.60;99.90
23305;DHT22;11821;51.456;8.844;2023-09-19T06:02:58;16.60;99.90
23305;DHT22;11821;51.456;8.844;2023-09-19T06:05:26;16.70;99.90
23305;DHT22;11821;51.456;8.844;2023-09-19T06:15:14;16.70;99.90
23305;DHT22;11821;51.456;8.844;2023-09-19T16:31:27;16.90;99.90
23305;DHT22;11821;51.456;8.844;2023-09-19T18:08:37;21.50;99.90
23305;DHT22;11821;51.456;8.844;2023-09-19T18:11:04;19.90;99.90
23305;DHT22;11821;51.456;8.844;2023-09-19T18:13:35;19.80;99.90
23305;DHT22;11821;51.456;8.844;2023-09-19T18:40:43;19.70;99.90
23305;DHT22;11821;51.456;8.844;2023-09-19T19:22:27;19.10;99.90
23305;DHT22;11821;51.456;8.844;2023-09-19T20:28:57;18.00;99.90
23305;DHT22;11821;51.456;8.844;2023-09-19T21:03:52;18.20;99.90
